Time;durP1;ratioP1;P1;durP2;ratioP2;P2;SDS_P1;SDS_P2;PMS_P1;PMS_P2;Temp;Humidity;BMP_temperature;BMP_pressure;BME280_temperature;BME280_humidity;BME280_pressure;Samples;Min_cycle;Max_cycle;Signal;HPM_P1;HPM_P2
2024/03/12 00:00:23;;;;;;;47.57;27.77;;;8.50;99.90;;;;;;5080264;28;20799;-81
2024/03/12 00:02:50;;;;;;;44.93;27.03;;;8.60;99.90;;;;;;5081790;28;20198;-83
2024/03/12 00:05:19;;;;;;;42.63;28.17;;;8.50;99.90;;;;;;5083168;28;20172;-82
2024/03/12 00:07:46;;;;;;;41.20;27.17;;;8.60;99.90;;;;;;5081117;28;20302;-83
2024/03/12 00:10:17;;;;;;;44.73;28.50;;;8.70;99.90;;;;;;5084856;28;20207;-82
2024/03/12 00:12:47;;;;;;;41.17;26.13;;;8.70;99.90;;;;;;5081436;28;20173;-83
2024/03/12 00:15:17;;;;;;;44.83;26.97;;;8.60;99.90;;;;;;5081261;28;20690;-82
2024/03/12 00:17:44;;;;;;;41.73;27.53;;;8.60;99.90;;;;;;5083764;28;20188;-83
2024/03/12 00:20:17;;;;;;;43.60;25.80;;;8.70;99.90;;;;;;5081877;28;20172;-82
2024/03/12 00:22:47;;;;;;;42.00;27.87;;;8.70;99.90;;;;;;5082240;28;20482;-82
2024/03/12 00:25:19;;;;;;;40.83;26.57;;;8.70;99.90;;;;;;5081965;28;20168;-83
2024/03/12 00:27:46;;;;;;;42.33;26.73;;;8.80;99.90;;;;;;5080212;28;20258;-83
2024/03/12 00:30:13;;;;;;;38.53;26.80;;;8.80;99.90;;;;;;5080570;28;20175;-83
2024/03/12 00:32:40;;;;;;;42.80;26.23;;;8.80;99.90;;;;;;5084951;28;20176;-82
2024/03/12 00:35:10;;;;;;;39.77;25.30;;;8.70;99.90;;;;;;5090452;28;20200;-82
2024/03/12 00:37:41;;;;;;;37.87;24.00;;;8.70;99.90;;;;;;5084057;28;20161;-81
2024/03/12 00:40:11;;;;;;;42.47;27.20;;;8.60;99.90;;;;;;5085107;28;20167;-82
2024/03/12 00:42:38;;;;;;;37.07;23.70;;;8.60;99.90;;;;;;5082475;28;20261;-83
2024/03/12 00:45:06;;;;;;;39.73;26.30;;;8.50;99.90;;;;;;5079460;28;20188;-81
2024/03/12 00:47:33;;;;;;;44.33;27.17;;;8.40;99.90;;;;;;5082447;28;20164;-82
2024/03/12 00:50:00;;;;;;;40.93;26.23;;;8.40;99.90;;;;;;5082093;28;20175;-83
2024/03/12 00:52:26;;;;;;;47.07;27.80;;;8.40;99.90;;;;;;5081393;28;20591;-84
2024/03/12 00:54:52;;;;;;;37.20;24.67;;;8.30;99.90;;;;;;5081342;28;20676;-82
2024/03/12 00:57:20;;;;;;;43.73;27.93;;;8.30;99.90;;;;;;5081852;28;20172;-82
2024/03/12 00:59:47;;;;;;;43.20;27.57;;;8.40;99.90;;;;;;5081295;28;20598;-82
2024/03/12 01:02:12;;;;;;;46.47;28.97;;;8.50;99.90;;;;;;5081429;28;20175;-83
2024/03/12 01:04:41;;;;;;;48.77;29.70;;;8.60;99.90;;;;;;5082045;28;20167;-82
2024/03/12 01:07:07;;;;;;;46.23;28.23;;;8.60;99.90;;;;;;5080442;28;20255;-82
2024/03/12 01:09:39;;;;;;;45.27;28.07;;;8.70;99.90;;;;;;5081147;28;20600;-81
2024/03/12 01:12:09;;;;;;;45.63;28.37;;;8.60;99.90;;;;;;5075907;28;20176;-82
2024/03/12 01:14:36;;;;;;;49.57;29.23;;;8.50;99.90;;;;;;5074069;28;20178;-81
2024/03/12 01:17:05;;;;;;;46.93;29.17;;;8.60;99.90;;;;;;5071438;28;20234;-81
2024/03/12 01:19:31;;;;;;;48.07;27.83;;;8.60;99.90;;;;;;5078788;28;20168;-81
2024/03/12 01:21:56;;;;;;;41.63;28.10;;;8.70;99.90;;;;;;5082639;28;20184;-82
2024/03/12 01:24:26;;;;;;;46.27;28.13;;;8.70;99.90;;;;;;5081241;28;20636;-82
2024/03/12 01:26:52;;;;;;;45.53;28.20;;;8.60;99.90;;;;;;5090713;28;20171;-81
2024/03/12 01:29:18;;;;;;;43.87;27.73;;;8.50;99.90;;;;;;5073113;28;20186;-82
2024/03/12 01:31:44;;;;;;;47.50;28.57;;;8.40;99.90;;;;;;5075684;28;20170;-81
2024/03/12 01:34:10;;;;;;;47.40;28.60;;;8.40;99.90;;;;;;5091694;28;20258;-81
2024/03/12 01:36:37;;;;;;;44.53;29.57;;;8.30;99.90;;;;;;5086048;28;20202;-82
2024/03/12 01:39:07;;;;;;;46.47;29.20;;;8.30;99.90;;;;;;5090792;28;20202;-83
2024/03/12 01:41:34;;;;;;;46.03;28.03;;;8.40;99.90;;;;;;5087621;28;20200;-83
2024/03/12 01:44:02;;;;;;;55.30;29.23;;;8.40;99.90;;;;;;5071652;28;20730;-82
2024/03/12 01:46:34;;;;;;;49.63;30.40;;;8.40;99.90;;;;;;5078032;28;20177;-82
2024/03/12 01:49:00;;;;;;;47.33;28.70;;;8.40;99.90;;;;;;5076293;28;20192;-83
2024/03/12 01:51:29;;;;;;;48.77;30.10;;;8.30;99.90;;;;;;5078856;28;20575;-82
2024/03/12 01:53:56;;;;;;;55.03;31.10;;;8.50;99.90;;;;;;5081422;28;20581;-82
2024/03/12 01:56:24;;;;;;;51.73;32.43;;;8.60;99.90;;;;;;5091001;28;20218;-82
2024/03/12 01:58:50;;;;;;;52.57;30.90;;;8.70;99.90;;;;;;5090934;28;20182;-83
2024/03/12 02:01:19;;;;;;;48.37;30.03;;;8.60;99.90;;;;;;5090005;28;20328;-83
2024/03/12 02:03:51;;;;;;;50.27;29.07;;;8.70;99.90;;;;;;5085482;28;20187;-82
2024/03/12 02:06:19;;;;;;;55.43;31.30;;;8.80;99.90;;;;;;5081094;28;20176;-83
2024/03/12 02:08:46;;;;;;;48.93;29.47;;;8.80;99.90;;;;;;5076940;28;20179;-82
2024/03/12 02:11:11;;;;;;;49.67;29.67;;;8.70;99.90;;;;;;5069232;28;20180;-82
2024/03/12 02:13:38;;;;;;;53.63;30.97;;;8.60;99.90;;;;;;5073132;28;20181;-83
2024/03/12 02:16:05;;;;;;;54.33;30.90;;;8.70;99.90;;;;;;5069898;28;20241;-82
2024/03/12 02:18:32;;;;;;;55.53;32.57;;;8.60;99.90;;;;;;5086746;28;20167;-81
2024/03/12 02:20:58;;;;;;;48.53;31.07;;;8.60;99.90;;;;;;5093757;28;20198;-81
2024/03/12 02:23:43;;;;;;;48.60;31.20;;;8.60;99.90;;;;;;5093659;28;20178;-82
2024/03/12 02:26:09;;;;;;;46.77;31.20;;;8.40;99.90;;;;;;5089965;28;20180;-82
2024/03/12 02:28:39;;;;;;;55.07;31.73;;;8.40;99.90;;;;;;5085591;28;20186;-80
2024/03/12 02:31:05;;;;;;;50.77;30.33;;;8.50;99.90;;;;;;5085360;28;20184;-80
2024/03/12 02:33:32;;;;;;;49.60;30.60;;;8.50;99.90;;;;;;5073211;28;20217;-83
2024/03/12 02:35:58;;;;;;;46.80;29.93;;;8.50;99.90;;;;;;5087630;28;20268;-83
2024/03/12 02:38:23;;;;;;;46.43;31.03;;;8.50;99.90;;;;;;5085035;28;20641;-81
2024/03/12 02:40:49;;;;;;;51.20;31.87;;;8.60;99.90;;;;;;5082496;28;20172;-82
2024/03/12 02:43:15;;;;;;;46.83;30.17;;;8.60;99.90;;;;;;5086631;28;20165;-81
2024/03/12 02:45:42;;;;;;;55.27;32.17;;;8.60;99.90;;;;;;5082333;28;20175;-83
2024/03/12 02:48:12;;;;;;;48.87;31.17;;;8.60;99.90;;;;;;5092764;28;20186;-82
2024/03/12 02:50:38;;;;;;;42.60;28.67;;;8.60;99.90;;;;;;5081257;28;20175;-82
2024/03/12 02:53:06;;;;;;;44.67;30.63;;;8.70;99.90;;;;;;5094301;28;20184;-82
2024/03/12 02:55:33;;;;;;;48.83;30.70;;;8.60;99.90;;;;;;5093808;28;20207;-82
2024/03/12 02:57:59;;;;;;;44.87;29.67;;;8.60;99.90;;;;;;5084491;28;20172;-83
2024/03/12 03:00:24;;;;;;;42.37;29.70;;;8.70;99.90;;;;;;5080582;28;20590;-82
2024/03/12 03:02:54;;;;;;;44.90;29.77;;;8.60;99.90;;;;;;5087261;28;20189;-83
2024/03/12 03:05:20;;;;;;;45.90;29.60;;;8.60;99.90;;;;;;5072996;28;20548;-82
2024/03/12 03:07:48;;;;;;;42.80;30.17;;;8.60;99.90;;;;;;5072958;28;20172;-82
2024/03/12 03:10:14;;;;;;;46.17;30.10;;;8.60;99.90;;;;;;5073947;28;20226;-82
2024/03/12 03:12:43;;;;;;;44.13;31.47;;;8.60;99.90;;;;;;5081876;28;20217;-82
2024/03/12 03:15:13;;;;;;;49.63;31.47;;;8.60;99.90;;;;;;5093707;28;20204;-84
2024/03/12 03:17:43;;;;;;;46.33;30.30;;;8.60;99.90;;;;;;5079795;28;20184;-82
2024/03/12 03:20:14;;;;;;;41.90;28.63;;;8.60;99.90;;;;;;5087336;28;20575;-81
2024/03/12 03:22:40;;;;;;;46.57;30.77;;;8.50;99.90;;;;;;5094686;28;20188;-82
2024/03/12 03:25:06;;;;;;;48.37;29.77;;;8.50;99.90;;;;;;5093595;28;20313;-82
2024/03/12 03:27:32;;;;;;;45.37;29.73;;;8.50;99.90;;;;;;5074151;28;20707;-84
2024/03/12 03:29:59;;;;;;;45.87;30.63;;;8.50;99.90;;;;;;5088167;28;20307;-82
2024/03/12 03:32:25;;;;;;;47.33;30.30;;;8.40;99.90;;;;;;5083797;28;20232;-82
2024/03/12 03:34:52;;;;;;;44.93;28.77;;;8.40;99.90;;;;;;5093378;28;20690;-82
2024/03/12 03:37:20;;;;;;;46.07;30.10;;;8.40;99.90;;;;;;5087822;28;20199;-82
2024/03/12 03:39:46;;;;;;;45.17;29.03;;;8.50;99.90;;;;;;5074991;28;20185;-83
2024/03/12 03:42:13;;;;;;;44.47;29.27;;;8.50;99.90;;;;;;5092490;28;20203;-83
2024/03/12 03:44:39;;;;;;;45.10;28.77;;;8.40;99.90;;;;;;5092915;28;20164;-82
2024/03/12 03:47:04;;;;;;;45.57;29.30;;;8.40;99.90;;;;;;5092757;28;20285;-83
2024/03/12 03:49:30;;;;;;;44.57;29.53;;;8.40;99.90;;;;;;5094123;28;20180;-84
2024/03/12 03:51:56;;;;;;;48.67;30.83;;;8.50;99.90;;;;;;5093344;28;20628;-82
2024/03/12 03:54:22;;;;;;;44.97;29.60;;;8.60;99.90;;;;;;5092995;28;20271;-82
2024/03/12 03:56:47;;;;;;;46.80;31.07;;;8.50;99.90;;;;;;5093262;28;20237;-82
2024/03/12 03:59:16;;;;;;;46.10;29.13;;;8.50;99.90;;;;;;5093688;28;20244;-82
2024/03/12 04:01:42;;;;;;;44.20;29.33;;;8.50;99.90;;;;;;5091679;28;20273;-82
2024/03/12 04:04:10;;;;;;;48.90;29.90;;;8.60;99.90;;;;;;5093553;28;20618;-82
2024/03/12 04:06:37;;;;;;;47.47;28.43;;;8.60;99.90;;;;;;5094624;28;20178;-81
2024/03/12 04:09:04;;;;;;;47.30;29.67;;;8.70;99.90;;;;;;5091845;28;20198;-83
2024/03/12 04:11:31;;;;;;;50.40;31.20;;;8.80;99.90;;;;;;5092569;28;20183;-82
2024/03/12 04:13:58;;;;;;;48.77;30.43;;;8.80;99.90;;;;;;5093959;28;20174;-82
2024/03/12 04:16:27;;;;;;;48.03;29.73;;;8.80;99.90;;;;;;5092377;28;20223;-82
2024/03/12 04:18:53;;;;;;;44.90;29.00;;;8.80;99.90;;;;;;5093637;28;20171;-81
2024/03/12 04:21:19;;;;;;;46.37;29.83;;;8.80;99.90;;;;;;5092927;28;20180;-81
2024/03/12 04:23:46;;;;;;;47.40;29.80;;;8.60;99.90;;;;;;5092503;28;20176;-82
2024/03/12 04:26:12;;;;;;;46.00;30.60;;;8.70;99.90;;;;;;5092569;28;20732;-82
2024/03/12 04:28:38;;;;;;;45.00;29.40;;;8.70;99.90;;;;;;5092394;28;20184;-83
2024/03/12 04:31:07;;;;;;;44.67;28.23;;;8.60;99.90;;;;;;5092286;28;20317;-84
2024/03/12 04:33:34;;;;;;;45.33;27.97;;;8.60;99.90;;;;;;5092469;28;20615;-83
2024/03/12 04:36:00;;;;;;;40.33;28.40;;;8.50;99.90;;;;;;5092056;28;20706;-82
2024/03/12 04:38:26;;;;;;;40.43;27.67;;;8.60;99.90;;;;;;5092370;28;20184;-83
2024/03/12 04:40:52;;;;;;;39.33;26.43;;;8.50;99.90;;;;;;5092298;28;20172;-81
2024/03/12 04:43:18;;;;;;;44.20;28.93;;;8.70;99.90;;;;;;5092346;28;20640;-82
2024/03/12 04:45:44;;;;;;;41.27;27.40;;;8.70;99.90;;;;;;5091926;28;20176;-82
2024/03/12 04:48:11;;;;;;;41.97;28.43;;;8.60;99.90;;;;;;5092473;28;20179;-82
2024/03/12 04:50:37;;;;;;;44.00;27.50;;;8.60;99.90;;;;;;5091700;28;20198;-81
2024/03/12 04:53:04;;;;;;;42.50;27.93;;;8.60;99.90;;;;;;5092329;28;20636;-82
2024/03/12 04:55:32;;;;;;;45.17;29.57;;;8.50;99.90;;;;;;5091921;28;20298;-82
2024/03/12 04:57:58;;;;;;;39.47;28.13;;;8.40;99.90;;;;;;5091907;28;20179;-83
2024/03/12 05:00:24;;;;;;;42.27;28.70;;;8.60;99.90;;;;;;5092075;28;20229;-82
2024/03/12 05:02:49;;;;;;;41.43;27.93;;;8.70;99.90;;;;;;5092044;28;20183;-81
2024/03/12 05:05:20;;;;;;;44.40;28.40;;;8.60;99.90;;;;;;5091702;28;20701;-82
2024/03/12 05:07:46;;;;;;;37.43;27.37;;;8.60;99.90;;;;;;5093414;28;20208;-83
2024/03/12 05:10:12;;;;;;;39.60;27.53;;;8.60;99.90;;;;;;5091830;28;20176;-82
2024/03/12 05:12:39;;;;;;;43.67;29.43;;;8.70;99.90;;;;;;5090796;28;20172;-81
2024/03/12 05:15:06;;;;;;;41.17;29.17;;;8.70;99.90;;;;;;5090860;28;20688;-80
2024/03/12 05:17:31;;;;;;;44.73;29.87;;;8.80;99.90;;;;;;5092465;28;20186;-80
2024/03/12 05:19:57;;;;;;;44.23;30.70;;;8.80;99.90;;;;;;5092415;28;20547;-82
2024/03/12 05:22:23;;;;;;;45.63;29.57;;;8.70;99.90;;;;;;5093183;28;20207;-82
2024/03/12 05:24:48;;;;;;;45.60;29.90;;;8.70;99.90;;;;;;5091783;28;20643;-82
2024/03/12 05:27:21;;;;;;;45.77;29.60;;;8.70;99.90;;;;;;5091355;28;20271;-82
2024/03/12 05:29:53;;;;;;;42.23;30.13;;;8.70;99.90;;;;;;5090904;28;20182;-83
2024/03/12 05:32:21;;;;;;;44.20;29.63;;;8.80;99.90;;;;;;5092528;28;20198;-83
2024/03/12 05:34:48;;;;;;;42.07;28.47;;;8.80;99.90;;;;;;5091603;28;20190;-83
2024/03/12 05:37:29;;;;;;;46.13;31.13;;;8.70;99.90;;;;;;5090927;28;20164;-82
2024/03/12 05:40:11;;;;;;;45.13;29.57;;;8.60;99.90;;;;;;5090884;28;20199;-80
2024/03/12 05:48:09;;;;;;;46.67;30.30;;;8.60;99.90;;;;;;5092803;28;20202;-84
2024/03/12 05:50:42;;;;;;;44.63;30.90;;;8.50;99.90;;;;;;5091080;28;20179;-82
2024/03/12 05:53:10;;;;;;;46.87;30.17;;;8.50;99.90;;;;;;5092416;28;20736;-81
2024/03/12 05:55:36;;;;;;;42.93;30.40;;;8.50;99.90;;;;;;5091202;28;20203;-83
2024/03/12 05:58:04;;;;;;;49.57;30.77;;;8.40;99.90;;;;;;5090623;28;20681;-83
2024/03/12 06:00:30;;;;;;;47.93;30.90;;;8.30;99.90;;;;;;5092146;28;20167;-82
2024/03/12 06:02:56;;;;;;;47.70;31.53;;;8.20;99.90;;;;;;5090997;28;20224;-82
2024/03/12 06:05:21;;;;;;;46.83;29.93;;;8.30;99.90;;;;;;5090970;28;20175;-82
2024/03/12 06:07:52;;;;;;;48.53;32.80;;;8.30;99.90;;;;;;5090612;28;20314;-82
2024/03/12 06:10:18;;;;;;;42.30;29.93;;;8.30;99.90;;;;;;5089903;28;20632;-81
2024/03/12 06:12:44;;;;;;;44.87;33.00;;;8.20;99.90;;;;;;5092530;28;20155;-81
2024/03/12 06:15:10;;;;;;;54.50;33.70;;;8.10;99.90;;;;;;5088468;28;20207;-82
2024/03/12 06:17:36;;;;;;;45.83;30.60;;;8.20;99.90;;;;;;5090729;28;20172;-83
2024/03/12 06:20:05;;;;;;;50.23;32.27;;;8.10;99.90;;;;;;5090773;28;20218;-82
2024/03/12 06:22:32;;;;;;;46.70;31.63;;;8.00;99.90;;;;;;5089937;28;20271;-82
2024/03/12 06:24:58;;;;;;;45.27;30.87;;;8.10;99.90;;;;;;5090445;28;20185;-82
2024/03/12 06:27:24;;;;;;;45.67;32.03;;;8.10;99.90;;;;;;5090623;28;20179;-82
2024/03/12 06:29:51;;;;;;;49.80;32.83;;;8.10;99.90;;;;;;5090946;28;20167;-81
2024/03/12 06:32:19;;;;;;;48.67;31.77;;;8.10;99.90;;;;;;5090946;28;20180;-82
2024/03/12 06:34:46;;;;;;;46.20;30.40;;;8.10;99.90;;;;;;5092189;28;20198;-83
2024/03/12 06:37:12;;;;;;;49.97;32.33;;;8.10;99.90;;;;;;5090724;28;20208;-82
2024/03/12 06:39:41;;;;;;;47.57;31.83;;;8.00;99.90;;;;;;5091976;28;20262;-82
2024/03/12 06:42:07;;;;;;;47.00;31.97;;;8.00;99.90;;;;;;5090294;28;20172;-82
2024/03/12 06:44:35;;;;;;;47.90;33.53;;;8.00;99.90;;;;;;5090289;28;20660;-84
2024/03/12 06:47:01;;;;;;;43.97;31.63;;;8.00;99.90;;;;;;5090537;28;20171;-83
2024/03/12 06:49:27;;;;;;;45.37;32.10;;;8.00;99.90;;;;;;5089824;28;20172;-82
2024/03/12 06:51:54;;;;;;;47.43;31.17;;;8.00;99.90;;;;;;5091247;28;20176;-84
2024/03/12 06:54:21;;;;;;;47.70;32.20;;;8.10;99.90;;;;;;5089903;28;20199;-81
2024/03/12 06:56:47;;;;;;;46.83;31.00;;;8.20;99.90;;;;;;5090049;28;20285;-81
2024/03/12 06:59:16;;;;;;;48.97;32.33;;;8.20;99.90;;;;;;5088549;28;20212;-79
2024/03/12 07:01:42;;;;;;;48.13;30.97;;;8.30;99.90;;;;;;5090900;28;20172;-80
2024/03/12 07:04:09;;;;;;;47.70;31.43;;;8.20;99.90;;;;;;5091068;28;20312;-85
2024/03/12 07:06:36;;;;;;;46.90;32.80;;;8.20;99.90;;;;;;5089886;28;20182;-82
2024/03/12 07:09:08;;;;;;;46.93;31.63;;;8.10;99.90;;;;;;5107915;28;20191;-84
2024/03/12 07:11:39;;;;;;;43.63;31.23;;;8.20;99.90;;;;;;5089562;28;20172;-81
2024/03/12 07:14:23;;;;;;;50.50;31.87;;;8.30;99.90;;;;;;5088170;28;20175;-82
2024/03/12 07:16:52;;;;;;;48.23;32.77;;;8.30;99.90;;;;;;5088650;28;20255;-84
2024/03/12 07:19:19;;;;;;;46.77;31.30;;;8.30;99.90;;;;;;5088158;28;20678;-84
2024/03/12 07:21:45;;;;;;;51.83;32.80;;;8.30;99.90;;;;;;5090835;28;20271;-83
2024/03/12 07:24:12;;;;;;;44.17;31.53;;;8.40;99.90;;;;;;5093026;28;20594;-81
2024/03/12 07:26:38;;;;;;;51.43;31.80;;;8.30;99.90;;;;;;5093252;28;20180;-83
2024/03/12 07:29:06;;;;;;;45.73;31.47;;;8.30;99.90;;;;;;5093209;28;20202;-84
2024/03/12 07:31:34;;;;;;;46.43;30.60;;;8.40;99.90;;;;;;5093754;28;20221;-83
2024/03/12 07:34:00;;;;;;;44.90;30.80;;;8.50;99.90;;;;;;5093495;28;20262;-84
2024/03/12 07:36:29;;;;;;;43.47;30.30;;;8.50;99.90;;;;;;5095069;28;20204;-84
2024/03/12 07:38:58;;;;;;;46.40;30.77;;;8.60;99.90;;;;;;5094816;28;20573;-84
2024/03/12 07:41:24;;;;;;;47.50;30.07;;;8.60;99.90;;;;;;5095084;28;20195;-85
2024/03/12 07:43:50;;;;;;;46.73;31.30;;;8.60;99.90;;;;;;5092349;28;20212;-84
2024/03/12 07:46:17;;;;;;;44.70;30.70;;;8.70;99.90;;;;;;5093415;28;20225;-83
2024/03/12 07:48:47;;;;;;;41.53;29.07;;;8.80;99.90;;;;;;5093366;28;20283;-82
2024/03/12 07:51:13;;;;;;;41.10;29.33;;;8.70;99.90;;;;;;5092995;28;20206;-82
2024/03/12 07:53:40;;;;;;;40.30;28.90;;;8.60;99.90;;;;;;5092965;28;20234;-82
2024/03/12 07:56:06;;;;;;;42.57;30.30;;;8.70;99.90;;;;;;5094272;28;20503;-82
2024/03/12 07:58:33;;;;;;;41.73;29.23;;;8.70;99.90;;;;;;5086752;28;20621;-82
2024/03/12 08:01:01;;;;;;;39.87;27.77;;;8.70;99.90;;;;;;5081161;28;20188;-85
2024/03/12 08:03:27;;;;;;;39.40;28.83;;;8.70;99.90;;;;;;5073882;28;20270;-82
2024/03/12 08:05:52;;;;;;;44.70;30.03;;;8.70;99.90;;;;;;5072910;28;20187;-83
2024/03/12 08:08:19;;;;;;;43.40;30.53;;;8.60;99.90;;;;;;5073623;28;20187;-83
2024/03/12 08:10:44;;;;;;;41.17;27.77;;;8.80;99.90;;;;;;5073777;28;20172;-83
2024/03/12 08:13:10;;;;;;;40.57;28.07;;;8.80;99.90;;;;;;5072639;28;20164;-83
2024/03/12 08:15:37;;;;;;;38.97;28.03;;;8.80;99.90;;;;;;5072641;28;20845;-84
2024/03/12 08:18:04;;;;;;;39.70;28.03;;;8.80;99.90;;;;;;5071152;28;20617;-83
2024/03/12 08:20:29;;;;;;;38.57;27.30;;;8.80;99.90;;;;;;5072225;28;20261;-83
2024/03/12 08:22:55;;;;;;;43.07;30.23;;;8.80;99.90;;;;;;5071760;28;20656;-84
2024/03/12 08:25:22;;;;;;;41.27;28.83;;;8.90;99.90;;;;;;5072479;28;20271;-82
2024/03/12 08:27:48;;;;;;;38.10;27.77;;;8.90;99.90;;;;;;5072894;28;20182;-84
2024/03/12 08:30:15;;;;;;;46.20;28.67;;;8.90;99.90;;;;;;5072659;28;20180;-84
2024/03/12 08:32:43;;;;;;;40.27;27.97;;;8.90;99.90;;;;;;5072666;28;20268;-83
2024/03/12 08:35:10;;;;;;;43.27;29.03;;;8.90;99.90;;;;;;5071709;28;20208;-81
2024/03/12 08:37:37;;;;;;;45.23;30.57;;;9.10;99.90;;;;;;5072263;28;20651;-84
2024/03/12 08:40:03;;;;;;;48.60;28.43;;;9.10;99.90;;;;;;5071701;28;20188;-85
2024/03/12 08:42:30;;;;;;;45.87;28.97;;;9.10;99.90;;;;;;5072261;28;20290;-84
2024/03/12 08:44:58;;;;;;;41.33;29.33;;;9.10;99.90;;;;;;5072219;28;20172;-86
2024/03/12 08:47:25;;;;;;;42.27;28.60;;;9.10;99.90;;;;;;5072189;28;20187;-83
2024/03/12 08:49:51;;;;;;;44.87;28.77;;;9.10;99.90;;;;;;5071925;28;20287;-85
2024/03/12 08:52:17;;;;;;;46.07;30.67;;;9.10;99.90;;;;;;5071779;28;20180;-84
2024/03/12 08:54:43;;;;;;;42.30;28.10;;;9.10;99.90;;;;;;5072190;28;20191;-83
2024/03/12 08:57:08;;;;;;;41.77;30.13;;;9.00;99.90;;;;;;5072042;28;20191;-83
2024/03/12 08:59:34;;;;;;;39.03;27.77;;;9.00;99.90;;;;;;5071708;28;20255;-82
2024/03/12 09:02:02;;;;;;;44.50;29.27;;;9.00;99.90;;;;;;5071830;28;20298;-83
2024/03/12 09:04:30;;;;;;;41.73;28.47;;;9.00;99.90;;;;;;5071274;28;20344;-85
2024/03/12 09:06:57;;;;;;;42.87;28.57;;;9.10;99.90;;;;;;5071430;28;20199;-83
2024/03/12 09:09:25;;;;;;;40.33;27.57;;;9.00;99.90;;;;;;5072320;28;20643;-84
2024/03/12 09:11:52;;;;;;;40.17;28.70;;;9.00;99.90;;;;;;5071909;28;20206;-83
2024/03/12 09:14:18;;;;;;;43.47;29.43;;;9.00;99.90;;;;;;5071884;28;20176;-84
2024/03/12 09:16:44;;;;;;;47.13;30.07;;;9.10;99.90;;;;;;5072357;28;20698;-83
2024/03/12 09:19:09;;;;;;;43.87;31.00;;;9.20;99.90;;;;;;5071267;28;20643;-84
2024/03/12 09:21:35;;;;;;;46.03;30.80;;;9.30;99.90;;;;;;5071220;28;20191;-84
2024/03/12 09:24:01;;;;;;;44.83;30.47;;;9.30;99.90;;;;;;5071503;28;20183;-85
2024/03/12 09:26:27;;;;;;;44.80;30.07;;;9.50;99.90;;;;;;5071473;28;20191;-84
2024/03/12 09:28:53;;;;;;;41.97;30.93;;;9.50;99.90;;;;;;5072432;28;20169;-83
2024/03/12 09:31:19;;;;;;;50.13;30.77;;;9.50;99.90;;;;;;5070893;28;20207;-84
2024/03/12 09:33:47;;;;;;;45.77;31.53;;;9.50;99.90;;;;;;5071033;28;20172;-82
2024/03/12 09:36:15;;;;;;;41.97;29.80;;;9.40;99.90;;;;;;5070206;28;20204;-83
2024/03/12 09:38:43;;;;;;;44.60;30.83;;;9.40;99.90;;;;;;5071136;28;20198;-82
2024/03/12 09:41:12;;;;;;;45.60;30.77;;;9.50;99.90;;;;;;5072327;28;20620;-82
2024/03/12 09:43:39;;;;;;;46.27;32.13;;;9.50;99.90;;;;;;5070861;28;20172;-85
2024/03/12 09:46:05;;;;;;;50.80;31.40;;;9.60;99.90;;;;;;5070886;28;20514;-84
2024/03/12 09:48:31;;;;;;;45.23;32.77;;;9.70;99.90;;;;;;5072332;28;20210;-83
2024/03/12 09:50:59;;;;;;;47.37;33.53;;;9.70;99.90;;;;;;5072751;28;20176;-83
2024/03/12 09:53:26;;;;;;;47.10;32.63;;;9.70;99.90;;;;;;5071160;28;20220;-83
2024/03/12 09:55:53;;;;;;;52.50;34.67;;;9.80;99.90;;;;;;5069889;28;20208;-83
2024/03/12 09:58:19;;;;;;;48.27;33.63;;;10.10;99.90;;;;;;5071017;28;20208;-84
2024/03/12 10:00:45;;;;;;;51.70;36.40;;;10.10;99.90;;;;;;5071333;28;20633;-84
2024/03/12 10:03:10;;;;;;;51.70;34.73;;;10.10;99.90;;;;;;5070567;28;20192;-86
2024/03/12 10:05:40;;;;;;;50.93;34.40;;;10.20;99.90;;;;;;5070642;28;20313;-83
2024/03/12 10:08:16;;;;;;;47.00;34.87;;;10.40;99.90;;;;;;5070792;28;20269;-82
2024/03/12 10:10:43;;;;;;;56.70;36.87;;;10.50;99.90;;;;;;5071297;28;20177;-83
2024/03/12 10:13:14;;;;;;;51.40;35.50;;;10.60;99.90;;;;;;5070662;28;20643;-85
2024/03/12 10:15:59;;;;;;;54.03;37.90;;;10.70;99.90;;;;;;5071780;28;20200;-84
2024/03/12 10:18:29;;;;;;;55.50;36.10;;;10.80;98.90;;;;;;5071225;28;20298;-85
2024/03/12 10:21:02;;;;;;;58.30;36.57;;;10.70;98.10;;;;;;5072605;28;20170;-84
2024/03/12 10:23:33;;;;;;;57.37;38.90;;;10.60;99.90;;;;;;5070436;28;20180;-85
2024/03/12 10:26:27;;;;;;;55.53;36.87;;;10.60;99.90;;;;;;5069436;28;20192;-83
2024/03/12 10:28:55;;;;;;;53.50;35.50;;;10.80;98.90;;;;;;5070738;28;20226;-85
2024/03/12 10:31:21;;;;;;;61.27;39.67;;;10.80;96.90;;;;;;5071692;28;20173;-85
2024/03/12 10:33:49;;;;;;;53.70;36.60;;;10.90;97.00;;;;;;5070513;28;20188;-82
2024/03/12 10:36:35;;;;;;;52.43;36.27;;;10.80;94.50;;;;;;5070475;28;20209;-85
2024/03/12 10:39:06;;;;;;;55.97;37.13;;;10.80;96.30;;;;;;5071514;28;20210;-82
2024/03/12 10:41:33;;;;;;;54.37;39.00;;;10.90;96.50;;;;;;5073977;28;20629;-86
2024/03/12 10:44:10;;;;;;;53.73;35.53;;;10.90;95.50;;;;;;5074591;28;20174;-84
2024/03/12 10:46:40;;;;;;;54.13;36.37;;;10.90;96.60;;;;;;5074014;28;20172;-84
2024/03/12 10:49:11;;;;;;;53.37;36.23;;;10.90;96.50;;;;;;5074055;28;20273;-84
2024/03/12 10:51:40;;;;;;;51.60;37.20;;;10.90;95.10;;;;;;5085686;28;20180;-83
2024/03/12 10:54:11;;;;;;;49.13;34.87;;;10.90;94.20;;;;;;5073950;28;20612;-82
2024/03/12 10:56:37;;;;;;;53.90;35.00;;;11.00;94.30;;;;;;5073805;28;20261;-82
2024/03/12 10:59:06;;;;;;;49.57;34.10;;;11.10;94.10;;;;;;5073408;28;20225;-83
2024/03/12 11:01:33;;;;;;;49.80;36.23;;;11.20;92.00;;;;;;5072780;28;20221;-85
2024/03/12 11:04:00;;;;;;;51.50;35.77;;;11.30;88.10;;;;;;5073728;28;20623;-84
2024/03/12 11:06:26;;;;;;;47.53;33.03;;;11.40;77.20;;;;;;5074759;28;20196;-81
2024/03/12 11:08:52;;;;;;;46.03;32.87;;;11.30;70.30;;;;;;5074957;28;20170;-84
2024/03/12 11:11:18;;;;;;;44.43;30.80;;;11.30;69.30;;;;;;5057194;28;20203;-84
2024/03/12 11:13:44;;;;;;;45.30;31.77;;;11.20;67.20;;;;;;5074058;28;20186;-84
2024/03/12 11:16:17;;;;;;;41.30;30.63;;;11.20;70.40;;;;;;5073815;28;20254;-85
2024/03/12 11:18:44;;;;;;;41.90;30.17;;;11.30;69.20;;;;;;5074908;28;20174;-83
2024/03/12 11:21:18;;;;;;;38.77;28.60;;;11.50;64.80;;;;;;5073697;28;20234;-83
2024/03/12 11:23:48;;;;;;;39.57;29.20;;;11.40;57.20;;;;;;5074986;28;20655;-85
2024/03/12 11:26:15;;;;;;;37.77;26.27;;;11.50;52.40;;;;;;5073653;28;20186;-84
2024/03/12 11:28:48;;;;;;;38.33;28.33;;;11.50;47.50;;;;;;5073400;28;20179;-84
2024/03/12 11:31:16;;;;;;;37.63;26.97;;;11.60;46.20;;;;;;5073168;28;20177;-84
2024/03/12 11:33:52;;;;;;;41.27;27.87;;;11.70;44.80;;;;;;5073336;28;20629;-83
2024/03/12 11:36:31;;;;;;;37.77;26.90;;;11.70;45.30;;;;;;5073022;28;20290;-83
2024/03/12 11:39:15;;;;;;;35.87;25.90;;;11.70;46.90;;;;;;5072737;28;20250;-85
2024/03/12 11:42:15;;;;;;;33.57;24.47;;;11.60;50.20;;;;;;5074438;28;20163;-84
2024/03/12 11:44:53;;;;;;;34.63;24.63;;;11.60;51.90;;;;;;5072357;28;20184;-83
2024/03/12 11:47:29;;;;;;;30.50;23.47;;;11.80;49.00;;;;;;5073346;28;20180;-83
2024/03/12 11:49:55;;;;;;;30.63;22.63;;;11.90;42.50;;;;;;5072032;28;20179;-85
2024/03/12 11:52:21;;;;;;;30.20;21.33;;;11.90;41.10;;;;;;5073341;28;20287;-83
2024/03/12 11:54:48;;;;;;;31.70;21.17;;;11.80;39.00;;;;;;5074297;28;20220;-84
2024/03/12 11:57:29;;;;;;;28.53;21.83;;;11.70;41.40;;;;;;5073069;28;20248;-83
2024/03/12 11:59:56;;;;;;;27.83;21.97;;;11.60;43.80;;;;;;5073799;28;20171;-84
2024/03/12 12:02:23;;;;;;;31.37;22.37;;;11.60;42.80;;;;;;5073978;28;20264;-83
2024/03/12 12:04:53;;;;;;;29.00;22.27;;;11.70;41.90;;;;;;5072764;28;20355;-85
2024/03/12 12:07:24;;;;;;;29.90;21.70;;;11.80;41.00;;;;;;5073948;28;20641;-84
2024/03/12 12:09:52;;;;;;;29.10;21.27;;;11.80;45.30;;;;;;5073977;28;20191;-82
2024/03/12 12:12:18;;;;;;;25.40;20.47;;;11.80;47.90;;;;;;5074350;28;20179;-83
2024/03/12 12:14:45;;;;;;;30.73;20.73;;;11.80;44.20;;;;;;5075757;28;20612;-83
2024/03/12 12:17:11;;;;;;;30.80;20.83;;;11.80;39.90;;;;;;5075762;28;20211;-84
2024/03/12 12:19:37;;;;;;;29.93;21.97;;;11.80;40.50;;;;;;5073964;28;20182;-83
2024/03/12 12:22:04;;;;;;;28.47;20.63;;;11.60;47.20;;;;;;5075617;28;20172;-81
2024/03/12 12:24:31;;;;;;;29.40;21.40;;;11.40;53.20;;;;;;5075985;28;20164;-86
2024/03/12 12:26:58;;;;;;;26.47;19.97;;;11.30;57.40;;;;;;5072919;28;20546;-84
2024/03/12 12:29:26;;;;;;;26.13;20.93;;;11.20;65.50;;;;;;5072039;28;20171;-83
2024/03/12 12:31:53;;;;;;;28.10;20.33;;;11.20;74.70;;;;;;5073137;28;20499;-83
2024/03/12 12:34:20;;;;;;;29.03;20.50;;;11.30;69.50;;;;;;5072324;28;20184;-82
2024/03/12 12:36:49;;;;;;;24.87;19.57;;;11.30;72.40;;;;;;5072976;28;20219;-84
2024/03/12 12:39:16;;;;;;;25.07;18.93;;;11.40;65.20;;;;;;5072510;28;20215;-85
2024/03/12 12:41:45;;;;;;;25.63;19.37;;;11.30;65.50;;;;;;5071791;28;20181;-82
2024/03/12 12:44:15;;;;;;;27.53;19.20;;;11.30;67.30;;;;;;5072319;28;20175;-82